Time;durP1;ratioP1;P1;durP2;ratioP2;P2;SDS_P1;SDS_P2;PMS_P1;PMS_P2;Temp;Humidity;BMP_temperature;BMP_pressure;BME280_temperature;BME280_humidity;BME280_pressure;Samples;Min_cycle;Max_cycle;Signal;HPM_P1;HPM_P2
2021/05/04 00:00:42;;;;;;;4.30;3.90;;;12.40;73.70;;;;;;5084654;28;20280;-48
2021/05/04 00:03:08;;;;;;;4.27;3.97;;;12.40;73.80;;;;;;5085700;28;20192;-47
2021/05/04 00:05:34;;;;;;;5.13;4.70;;;12.40;73.40;;;;;;5077627;28;20201;-48
2021/05/04 00:07:59;;;;;;;4.07;3.67;;;12.40;73.70;;;;;;5080513;28;20219;-53
2021/05/04 00:10:25;;;;;;;5.03;3.93;;;12.40;73.90;;;;;;5086387;28;20196;-48
2021/05/04 00:12:51;;;;;;;4.13;3.50;;;12.40;73.70;;;;;;5090643;28;20326;-47
2021/05/04 00:15:17;;;;;;;4.60;3.67;;;12.40;73.80;;;;;;5090196;28;20894;-48
2021/05/04 00:17:42;;;;;;;3.77;3.47;;;12.50;73.60;;;;;;5090396;28;20523;-49
2021/05/04 00:20:09;;;;;;;7.00;4.50;;;12.40;74.00;;;;;;5082461;28;20185;-51
2021/05/04 00:22:35;;;;;;;3.53;3.20;;;12.40;73.60;;;;;;5085321;28;20330;-48
2021/05/04 00:25:00;;;;;;;7.53;4.47;;;12.40;73.80;;;;;;5090265;28;21005;-47
2021/05/04 00:27:26;;;;;;;4.63;3.53;;;12.40;73.70;;;;;;5090071;28;20192;-50
2021/05/04 00:29:51;;;;;;;7.80;3.60;;;12.40;73.70;;;;;;5097694;28;20563;-50
2021/05/04 00:32:17;;;;;;;3.50;3.20;;;12.40;73.80;;;;;;5110451;28;20199;-50
2021/05/04 00:34:43;;;;;;;3.87;3.57;;;12.40;73.80;;;;;;5107932;28;20211;-49
2021/05/04 00:37:08;;;;;;;3.93;3.50;;;12.40;74.10;;;;;;5078115;28;20203;-49
2021/05/04 00:39:36;;;;;;;4.23;3.33;;;12.40;74.10;;;;;;5091340;28;20816;-49
2021/05/04 00:42:03;;;;;;;3.70;3.17;;;12.40;74.40;;;;;;5105070;28;20180;-49
2021/05/04 00:44:29;;;;;;;4.37;3.33;;;12.30;73.90;;;;;;5107173;28;20417;-50
2021/05/04 00:46:55;;;;;;;3.73;3.30;;;12.40;74.10;;;;;;5110093;28;20784;-48
2021/05/04 00:49:21;;;;;;;3.30;3.00;;;12.40;74.00;;;;;;5109830;28;20188;-47
2021/05/04 00:51:48;;;;;;;4.90;4.00;;;12.40;74.20;;;;;;5077954;28;20457;-50
2021/05/04 00:54:14;;;;;;;3.70;3.40;;;12.40;73.90;;;;;;5089464;28;20216;-48
2021/05/04 00:56:40;;;;;;;3.30;3.00;;;12.40;74.20;;;;;;5089391;28;20420;-46
2021/05/04 00:59:08;;;;;;;5.63;3.40;;;12.40;74.10;;;;;;5087780;28;20456;-47
2021/05/04 01:01:34;;;;;;;4.77;3.63;;;12.40;74.20;;;;;;5087193;28;20426;-50
2021/05/04 01:04:01;;;;;;;4.60;3.00;;;12.40;74.20;;;;;;5089240;28;20430;-48
2021/05/04 01:06:27;;;;;;;7.87;3.27;;;12.40;74.40;;;;;;5080395;28;20439;-48
2021/05/04 01:08:52;;;;;;;3.43;3.13;;;12.40;74.40;;;;;;5092826;28;20565;-49
2021/05/04 01:11:18;;;;;;;3.30;2.70;;;12.50;74.10;;;;;;5089013;28;20200;-47
2021/05/04 01:13:50;;;;;;;3.27;2.73;;;12.50;75.00;;;;;;5089160;28;20264;-46
2021/05/04 01:16:16;;;;;;;7.63;3.23;;;12.50;74.10;;;;;;5089449;28;20364;-48
2021/05/04 01:18:41;;;;;;;3.53;3.13;;;12.50;74.10;;;;;;5088560;28;20942;-48
2021/05/04 01:21:07;;;;;;;3.83;3.40;;;12.50;73.90;;;;;;5082852;28;20197;-54
2021/05/04 01:23:35;;;;;;;5.37;3.10;;;12.50;74.20;;;;;;5079426;28;20269;-50
2021/05/04 01:26:01;;;;;;;4.57;2.87;;;12.50;73.90;;;;;;5088963;28;20262;-47
2021/05/04 01:28:27;;;;;;;5.30;2.57;;;12.50;73.80;;;;;;5088916;28;20505;-53
2021/05/04 01:30:52;;;;;;;2.97;2.50;;;12.60;74.00;;;;;;5091709;28;20494;-47
2021/05/04 01:33:18;;;;;;;3.10;2.80;;;12.60;73.80;;;;;;5109029;28;20222;-47
2021/05/04 01:35:44;;;;;;;4.10;2.93;;;12.60;74.20;;;;;;5104888;28;21168;-49
2021/05/04 01:38:10;;;;;;;2.63;2.43;;;12.60;73.70;;;;;;5079736;28;20443;-47
2021/05/04 01:40:35;;;;;;;2.93;2.57;;;12.60;73.60;;;;;;5088334;28;20212;-47
2021/05/04 01:43:01;;;;;;;4.80;2.70;;;12.60;73.60;;;;;;5088776;28;20195;-48
2021/05/04 01:45:27;;;;;;;2.83;2.60;;;12.60;73.40;;;;;;5088323;28;20203;-48
2021/05/04 01:47:52;;;;;;;2.47;2.27;;;12.70;73.70;;;;;;5088562;28;20604;-50
2021/05/04 01:50:18;;;;;;;3.47;2.30;;;12.70;73.60;;;;;;5087939;28;20199;-50
2021/05/04 01:52:44;;;;;;;3.10;2.60;;;12.70;73.80;;;;;;5074264;28;20196;-48
2021/05/04 01:55:10;;;;;;;3.33;2.50;;;12.70;73.50;;;;;;5085975;28;20188;-51
2021/05/04 01:57:37;;;;;;;3.17;2.87;;;12.70;73.80;;;;;;5109205;27;20647;-52
2021/05/04 02:00:05;;;;;;;2.50;2.30;;;12.70;73.30;;;;;;5101578;28;20500;-49
2021/05/04 02:02:31;;;;;;;3.17;2.87;;;12.80;73.60;;;;;;5108998;28;20514;-50
2021/05/04 02:04:57;;;;;;;2.70;2.43;;;12.70;73.10;;;;;;5108704;28;20500;-52
2021/05/04 02:07:23;;;;;;;2.87;2.67;;;12.80;73.20;;;;;;5083227;28;20727;-48
2021/05/04 02:09:49;;;;;;;2.80;2.50;;;12.80;73.50;;;;;;5089922;28;20199;-51
2021/05/04 02:12:15;;;;;;;4.10;2.50;;;12.80;73.70;;;;;;5097384;28;20615;-46
2021/05/04 02:14:40;;;;;;;2.43;2.23;;;12.80;73.10;;;;;;5106748;28;20520;-50
2021/05/04 02:17:06;;;;;;;2.47;1.90;;;12.70;73.40;;;;;;5108056;28;20468;-46
2021/05/04 02:19:33;;;;;;;2.63;2.43;;;12.80;73.80;;;;;;5107792;28;20188;-49
2021/05/04 02:21:58;;;;;;;2.77;2.50;;;12.80;73.40;;;;;;5089981;28;20197;-53
2021/05/04 02:24:24;;;;;;;3.20;2.30;;;12.80;73.60;;;;;;5084738;28;20798;-47
2021/05/04 02:26:50;;;;;;;2.70;2.20;;;12.70;73.80;;;;;;5087775;28;20193;-53
2021/05/04 02:29:15;;;;;;;2.33;2.10;;;12.70;74.50;;;;;;5090227;28;20196;-53
2021/05/04 02:31:41;;;;;;;2.60;2.23;;;12.60;76.40;;;;;;5098999;28;20195;-50
2021/05/04 02:34:07;;;;;;;2.90;2.67;;;12.50;77.30;;;;;;5105776;28;20215;-51
2021/05/04 02:36:33;;;;;;;8.53;2.80;;;12.50;77.50;;;;;;5099891;28;20817;-48
2021/05/04 02:38:59;;;;;;;4.87;2.67;;;12.40;80.30;;;;;;5081372;28;20184;-48
2021/05/04 02:41:25;;;;;;;5.40;2.50;;;12.30;81.10;;;;;;5087612;28;20706;-51
2021/05/04 02:43:50;;;;;;;7.00;2.67;;;12.40;82.30;;;;;;5086017;28;20434;-49
2021/05/04 02:46:17;;;;;;;2.70;1.90;;;12.30;82.30;;;;;;5087230;28;20521;-46
2021/05/04 02:48:43;;;;;;;3.93;2.07;;;12.20;82.70;;;;;;5085221;28;20198;-49
2021/05/04 02:51:11;;;;;;;4.77;2.37;;;12.10;85.80;;;;;;5085328;28;20434;-49
2021/05/04 02:53:37;;;;;;;2.90;2.03;;;11.90;90.30;;;;;;5077958;28;20500;-52
2021/05/04 02:56:05;;;;;;;6.60;2.20;;;11.80;91.60;;;;;;5092278;28;20431;-46
2021/05/04 02:58:31;;;;;;;2.93;1.90;;;11.60;93.10;;;;;;5104646;28;20436;-47
2021/05/04 03:00:57;;;;;;;3.53;1.87;;;11.40;93.80;;;;;;5105100;28;20864;-50
2021/05/04 03:03:23;;;;;;;4.20;2.13;;;11.20;95.70;;;;;;5107508;28;20433;-50
2021/05/04 03:05:50;;;;;;;5.90;2.40;;;11.10;97.40;;;;;;5107399;28;20188;-47
2021/05/04 03:08:15;;;;;;;3.30;2.00;;;11.00;98.90;;;;;;5081890;28;20732;-47
2021/05/04 03:10:41;;;;;;;5.13;2.20;;;11.00;99.90;;;;;;5084795;28;20431;-48
2021/05/04 03:13:07;;;;;;;3.23;2.70;;;10.80;99.90;;;;;;5086857;28;20625;-49
2021/05/04 03:15:33;;;;;;;4.30;2.00;;;10.30;99.90;;;;;;5086619;28;20429;-52
2021/05/04 03:18:00;;;;;;;3.10;1.83;;;10.70;99.90;;;;;;5087162;28;20305;-51
2021/05/04 03:20:26;;;;;;;6.57;2.30;;;10.70;99.90;;;;;;5086132;28;20184;-48
2021/05/04 03:22:52;;;;;;;7.80;2.53;;;10.70;99.90;;;;;;5076246;28;20648;-50
2021/05/04 03:25:17;;;;;;;2.20;1.80;;;10.60;99.90;;;;;;5085669;28;20678;-51
2021/05/04 03:27:43;;;;;;;5.77;2.10;;;10.60;99.90;;;;;;5100277;28;20188;-50
2021/05/04 03:30:10;;;;;;;8.10;2.47;;;10.70;99.90;;;;;;5094496;28;20184;-48
2021/05/04 03:32:40;;;;;;;4.20;1.70;;;10.50;99.90;;;;;;5086296;28;20224;-48
2021/05/04 03:35:07;;;;;;;6.77;2.03;;;10.50;99.90;;;;;;5087121;28;20430;-48
2021/05/04 03:37:33;;;;;;;7.43;2.07;;;10.50;99.90;;;;;;5078703;28;20450;-48
2021/05/04 03:39:58;;;;;;;5.90;2.37;;;10.50;99.90;;;;;;5079205;28;20427;-45
2021/05/04 03:42:24;;;;;;;5.00;2.03;;;10.40;99.90;;;;;;5086133;28;20404;-46
2021/05/04 03:44:49;;;;;;;10.23;2.30;;;10.30;99.90;;;;;;5085363;28;20668;-49
2021/05/04 03:47:15;;;;;;;3.40;1.67;;;10.50;99.90;;;;;;5086258;28;20196;-46
2021/05/04 03:49:41;;;;;;;3.10;1.87;;;10.30;99.90;;;;;;5086117;28;20684;-52
2021/05/04 03:52:06;;;;;;;1.73;1.63;;;10.30;99.90;;;;;;5064152;28;20613;-46
2021/05/04 03:54:32;;;;;;;3.70;2.30;;;10.30;99.90;;;;;;5076675;28;20564;-51
2021/05/04 03:56:58;;;;;;;2.83;2.00;;;10.20;99.90;;;;;;5086318;28;20660;-47
2021/05/04 03:59:23;;;;;;;3.60;2.40;;;10.10;99.90;;;;;;5085060;28;20595;-46
2021/05/04 04:01:49;;;;;;;5.83;2.20;;;10.00;99.90;;;;;;5086134;28;20656;-48
2021/05/04 04:04:15;;;;;;;4.67;2.00;;;9.80;99.90;;;;;;5084806;28;20287;-49
2021/05/04 04:06:40;;;;;;;5.93;2.00;;;9.80;99.90;;;;;;5086279;28;20652;-49
2021/05/04 04:09:06;;;;;;;2.80;2.10;;;9.90;99.90;;;;;;5077113;28;20208;-47
2021/05/04 04:11:32;;;;;;;2.20;2.00;;;9.80;99.90;;;;;;5086160;28;20193;-48
2021/05/04 04:13:59;;;;;;;3.70;2.10;;;10.00;99.90;;;;;;5086128;28;20220;-49
2021/05/04 04:16:25;;;;;;;3.30;2.00;;;9.70;99.90;;;;;;5086071;28;20192;-51
2021/05/04 04:18:50;;;;;;;2.47;2.27;;;9.80;99.90;;;;;;5084400;28;20423;-48
2021/05/04 04:21:16;;;;;;;2.50;2.30;;;9.80;99.90;;;;;;5084892;28;20267;-47
2021/05/04 04:23:41;;;;;;;3.27;2.40;;;9.80;99.90;;;;;;5073400;28;20197;-49
2021/05/04 04:26:07;;;;;;;3.00;2.70;;;9.70;99.90;;;;;;5086512;28;20656;-47
2021/05/04 04:28:33;;;;;;;4.60;2.60;;;9.80;99.90;;;;;;5086282;28;20212;-49
2021/05/04 04:30:59;;;;;;;2.30;2.10;;;9.60;99.90;;;;;;5101528;28;20187;-48
2021/05/04 04:33:28;;;;;;;6.17;2.23;;;9.80;99.90;;;;;;5106561;28;20403;-48
2021/05/04 04:35:53;;;;;;;4.20;3.10;;;9.80;99.90;;;;;;5106155;28;20433;-48
2021/05/04 04:38:20;;;;;;;2.87;2.50;;;9.70;99.90;;;;;;5083297;28;20828;-49
2021/05/04 04:40:47;;;;;;;5.30;2.33;;;9.70;99.90;;;;;;5084716;28;20432;-47
2021/05/04 04:43:13;;;;;;;4.00;2.17;;;9.50;99.90;;;;;;5084893;28;21130;-46
2021/05/04 04:45:39;;;;;;;4.27;2.43;;;9.60;99.90;;;;;;5085796;28;20479;-48
2021/05/04 04:48:05;;;;;;;2.90;2.43;;;9.80;99.90;;;;;;5086077;28;20731;-47
2021/05/04 04:50:31;;;;;;;3.77;2.63;;;9.60;99.90;;;;;;5085317;28;20196;-48
2021/05/04 04:52:57;;;;;;;2.50;2.30;;;9.60;99.90;;;;;;5080135;28;20478;-49
2021/05/04 04:55:22;;;;;;;3.10;2.60;;;9.50;99.90;;;;;;5080739;28;20261;-50
2021/05/04 04:57:48;;;;;;;4.10;2.80;;;9.40;99.90;;;;;;5088975;28;20192;-49
2021/05/04 05:00:14;;;;;;;3.93;2.30;;;9.30;99.90;;;;;;5080303;28;20197;-48
2021/05/04 05:02:39;;;;;;;2.90;2.17;;;9.40;99.90;;;;;;5085474;28;20192;-48
2021/05/04 05:05:06;;;;;;;4.20;3.10;;;9.40;99.90;;;;;;5100723;28;20434;-49
2021/05/04 05:07:31;;;;;;;3.03;2.67;;;9.50;99.90;;;;;;5089041;28;20283;-48
2021/05/04 05:09:57;;;;;;;5.40;2.20;;;9.50;99.90;;;;;;5088256;28;20764;-46
2021/05/04 05:12:25;;;;;;;3.07;2.07;;;9.50;99.90;;;;;;5089165;28;20230;-49
2021/05/04 05:14:52;;;;;;;2.57;2.30;;;9.60;99.90;;;;;;5075999;28;20835;-50
2021/05/04 05:17:18;;;;;;;3.53;2.23;;;9.60;99.90;;;;;;5088871;28;20494;-51
2021/05/04 05:19:44;;;;;;;2.67;2.20;;;9.70;99.90;;;;;;5088583;28;20426;-47
2021/05/04 05:22:10;;;;;;;2.47;2.07;;;9.80;99.90;;;;;;5087638;28;20942;-47
2021/05/04 05:24:37;;;;;;;2.97;2.00;;;9.60;99.90;;;;;;5089066;28;20651;-48
2021/05/04 05:27:03;;;;;;;4.27;2.00;;;9.60;99.90;;;;;;5087614;28;20192;-49
2021/05/04 05:29:30;;;;;;;2.93;2.53;;;9.80;99.90;;;;;;5092193;28;20737;-49
2021/05/04 05:31:56;;;;;;;3.20;2.20;;;9.60;99.90;;;;;;5083046;27;20433;-47
2021/05/04 05:34:22;;;;;;;3.37;2.00;;;9.90;99.90;;;;;;5089846;28;20542;-46
2021/05/04 05:36:48;;;;;;;2.23;1.90;;;9.70;99.90;;;;;;5088953;28;20189;-50
2021/05/04 05:39:15;;;;;;;2.20;1.90;;;9.70;99.90;;;;;;5087797;28;20649;-51
2021/05/04 05:41:41;;;;;;;2.03;1.87;;;9.80;99.90;;;;;;5088888;28;20184;-46
2021/05/04 05:44:07;;;;;;;2.20;2.07;;;9.70;99.90;;;;;;5087137;28;20440;-49
2021/05/04 05:46:33;;;;;;;2.10;1.90;;;9.70;99.90;;;;;;5078793;28;20443;-48
2021/05/04 05:48:59;;;;;;;2.70;2.10;;;9.70;99.90;;;;;;5093050;28;20187;-46
2021/05/04 05:51:25;;;;;;;2.53;2.00;;;9.80;99.90;;;;;;5104505;28;21061;-50
2021/05/04 05:53:52;;;;;;;2.93;2.40;;;9.70;99.90;;;;;;5107246;28;20564;-47
2021/05/04 05:56:18;;;;;;;2.57;2.33;;;9.70;99.90;;;;;;5100549;28;20433;-48
2021/05/04 05:58:44;;;;;;;2.70;2.23;;;9.50;99.90;;;;;;5108294;28;20482;-50
2021/05/04 06:01:10;;;;;;;2.80;2.17;;;9.40;99.90;;;;;;5091067;28;20431;-51
2021/05/04 06:03:36;;;;;;;3.63;2.80;;;9.40;99.90;;;;;;5086525;28;20200;-47
2021/05/04 06:06:02;;;;;;;3.03;2.30;;;9.20;99.90;;;;;;5088459;28;20426;-50
2021/05/04 06:08:28;;;;;;;2.53;2.13;;;9.30;99.90;;;;;;5089579;28;20216;-50
2021/05/04 06:10:54;;;;;;;2.40;2.03;;;9.50;99.90;;;;;;5088643;28;20430;-52
2021/05/04 06:13:20;;;;;;;2.73;2.37;;;9.30;99.90;;;;;;5088112;28;20706;-49
2021/05/04 06:15:46;;;;;;;2.37;2.17;;;9.20;99.90;;;;;;5084014;28;20435;-49
2021/05/04 06:18:13;;;;;;;3.20;2.00;;;9.30;99.90;;;;;;5077406;28;20470;-51
2021/05/04 06:20:39;;;;;;;2.47;2.27;;;9.30;99.90;;;;;;5085631;28;20443;-51
2021/05/04 06:23:06;;;;;;;2.07;1.90;;;9.30;99.90;;;;;;5088126;28;20946;-47
2021/05/04 06:25:32;;;;;;;2.20;2.00;;;9.30;99.90;;;;;;5088014;28;20199;-50
2021/05/04 06:28:03;;;;;;;2.80;2.10;;;9.30;99.90;;;;;;5087151;28;20517;-49
2021/05/04 06:30:33;;;;;;;2.03;1.83;;;9.40;99.90;;;;;;5087877;28;20434;-47
2021/05/04 06:33:08;;;;;;;1.83;1.73;;;9.40;99.90;;;;;;5081799;28;20431;-48
2021/05/04 06:35:36;;;;;;;4.20;2.30;;;9.50;99.90;;;;;;5087624;28;20433;-51
2021/05/04 06:38:03;;;;;;;3.63;2.00;;;9.60;99.90;;;;;;5087952;28;20834;-50
2021/05/04 06:40:29;;;;;;;1.93;1.70;;;9.60;99.90;;;;;;5087511;28;20426;-47
2021/05/04 06:42:55;;;;;;;2.93;1.97;;;9.60;99.90;;;;;;5087693;28;20426;-47
2021/05/04 06:45:21;;;;;;;1.90;1.70;;;9.70;99.90;;;;;;5087804;28;20261;-51
2021/05/04 06:47:47;;;;;;;3.93;2.47;;;9.70;99.90;;;;;;5079210;28;20506;-50
2021/05/04 06:50:13;;;;;;;2.10;1.73;;;9.80;99.90;;;;;;5086684;28;20431;-49
2021/05/04 06:52:38;;;;;;;4.10;2.00;;;9.70;99.90;;;;;;5087548;28;20733;-50
2021/05/04 06:55:05;;;;;;;2.50;2.10;;;9.60;99.90;;;;;;5087161;28;20465;-48
2021/05/04 06:57:31;;;;;;;2.20;2.00;;;9.80;99.90;;;;;;5085965;28;20196;-51
2021/05/04 06:59:56;;;;;;;4.20;1.90;;;9.80;99.90;;;;;;5100033;28;20505;-47
2021/05/04 07:02:22;;;;;;;2.87;1.80;;;9.80;99.90;;;;;;5083276;28;20526;-51
2021/05/04 07:04:48;;;;;;;3.33;2.30;;;9.90;99.90;;;;;;5088269;28;20228;-50
2021/05/04 07:07:13;;;;;;;3.90;1.97;;;10.00;99.90;;;;;;5096849;28;20195;-51
2021/05/04 07:09:39;;;;;;;3.00;2.03;;;9.90;99.90;;;;;;5104818;28;20215;-48
2021/05/04 07:12:05;;;;;;;2.90;2.70;;;9.90;99.90;;;;;;5106345;28;20844;-48
2021/05/04 07:14:32;;;;;;;3.10;2.60;;;10.10;99.90;;;;;;5107045;28;20268;-46
2021/05/04 07:17:02;;;;;;;2.30;2.10;;;9.70;99.90;;;;;;5095642;28;20459;-47
2021/05/04 07:19:28;;;;;;;2.50;2.30;;;10.10;99.90;;;;;;5082497;28;20429;-49
2021/05/04 07:21:55;;;;;;;2.80;2.23;;;9.90;99.90;;;;;;5096193;28;20571;-49
2021/05/04 07:24:21;;;;;;;2.60;2.23;;;10.00;99.90;;;;;;5107313;28;20437;-49
2021/05/04 07:26:47;;;;;;;3.33;2.63;;;9.90;99.90;;;;;;5101312;28;20558;-50
2021/05/04 07:29:13;;;;;;;2.20;2.00;;;9.90;99.90;;;;;;5092707;28;20505;-52
2021/05/04 07:31:40;;;;;;;2.23;2.10;;;9.70;99.90;;;;;;5104766;28;20199;-47
2021/05/04 07:34:05;;;;;;;2.70;2.50;;;10.10;99.90;;;;;;5075142;28;20641;-51
2021/05/04 07:36:31;;;;;;;4.83;2.40;;;9.80;99.90;;;;;;5087413;28;20429;-52
2021/05/04 07:38:58;;;;;;;2.70;2.10;;;9.90;99.90;;;;;;5102466;28;20194;-50
2021/05/04 07:41:23;;;;;;;2.53;2.20;;;9.70;99.90;;;;;;5105014;28;20176;-51
2021/05/04 07:43:49;;;;;;;2.37;2.20;;;9.90;99.90;;;;;;5106204;28;20421;-50
2021/05/04 07:46:15;;;;;;;2.70;2.50;;;9.90;99.90;;;;;;5106095;28;20809;-50
2021/05/04 07:48:41;;;;;;;2.60;2.27;;;9.90;99.90;;;;;;5074051;28;20197;-50
2021/05/04 07:51:06;;;;;;;3.53;2.50;;;10.10;99.90;;;;;;5085414;28;20245;-51
2021/05/04 07:53:33;;;;;;;2.83;2.50;;;9.90;99.90;;;;;;5085678;28;20235;-53
2021/05/04 07:55:59;;;;;;;3.20;2.40;;;10.00;99.90;;;;;;5085998;28;20195;-49
2021/05/04 07:58:24;;;;;;;2.60;2.40;;;9.80;99.90;;;;;;5085659;28;20494;-50
2021/05/04 08:00:50;;;;;;;2.83;2.50;;;9.80;99.90;;;;;;5082033;28;20521;-52
2021/05/04 08:03:16;;;;;;;3.20;2.30;;;9.80;99.90;;;;;;5077455;28;20197;-49
2021/05/04 08:05:42;;;;;;;4.10;2.90;;;9.80;99.90;;;;;;5084802;28;20222;-50
2021/05/04 08:08:11;;;;;;;3.13;2.53;;;9.70;99.90;;;;;;5084312;28;20277;-49
2021/05/04 08:10:37;;;;;;;3.40;2.37;;;9.80;99.90;;;;;;5085207;28;20430;-51
2021/05/04 08:13:05;;;;;;;4.73;1.90;;;9.80;99.90;;;;;;5085605;28;20422;-49
2021/05/04 08:15:32;;;;;;;2.53;2.33;;;9.90;99.90;;;;;;5085167;28;20197;-52
2021/05/04 08:18:04;;;;;;;4.40;2.30;;;10.20;99.90;;;;;;5079569;28;20445;-51
2021/05/04 08:20:32;;;;;;;2.50;2.30;;;9.90;99.90;;;;;;5082628;28;20931;-52
2021/05/04 08:23:00;;;;;;;3.50;2.57;;;10.20;99.90;;;;;;5092392;28;20448;-50
2021/05/04 08:25:26;;;;;;;2.50;2.30;;;10.00;99.90;;;;;;5103636;28;20441;-47
2021/05/04 08:27:52;;;;;;;2.53;2.20;;;10.00;99.90;;;;;;5084910;28;20429;-50
2021/05/04 08:30:18;;;;;;;4.50;2.50;;;9.90;99.90;;;;;;5084831;28;20792;-48
2021/05/04 08:32:44;;;;;;;2.17;1.97;;;10.00;99.90;;;;;;5082550;28;20430;-51
2021/05/04 08:35:10;;;;;;;2.60;2.20;;;10.10;99.90;;;;;;5083799;28;20469;-47
2021/05/04 08:37:36;;;;;;;3.20;2.50;;;10.00;99.90;;;;;;5100958;28;20191;-52
2021/05/04 08:40:02;;;;;;;2.23;2.03;;;10.10;99.90;;;;;;5109656;28;20414;-47
2021/05/04 08:42:28;;;;;;;2.73;2.20;;;10.20;99.90;;;;;;5096782;28;20278;-49
2021/05/04 08:44:55;;;;;;;2.50;1.63;;;10.10;99.90;;;;;;5105776;28;20517;-47
2021/05/04 08:47:22;;;;;;;1.70;1.60;;;10.30;99.90;;;;;;5085141;28;20227;-48
2021/05/04 08:49:49;;;;;;;2.70;2.23;;;10.30;99.90;;;;;;5085575;28;20464;-50
2021/05/04 08:52:16;;;;;;;3.07;1.70;;;10.40;99.90;;;;;;5088912;28;20933;-48
2021/05/04 08:54:42;;;;;;;1.60;1.50;;;10.50;99.90;;;;;;5088605;28;20481;-49
2021/05/04 08:57:08;;;;;;;2.93;1.60;;;10.60;99.90;;;;;;5086822;28;20423;-49
2021/05/04 08:59:34;;;;;;;7.10;1.97;;;10.80;99.90;;;;;;5086733;28;20192;-48
2021/05/04 09:02:00;;;;;;;3.47;2.17;;;11.00;99.90;;;;;;5088933;28;20184;-49
2021/05/04 09:04:35;;;;;;;2.93;1.77;;;11.10;99.90;;;;;;5078479;28;20204;-48
2021/05/04 09:07:23;;;;;;;2.43;1.43;;;11.20;99.90;;;;;;5088585;28;20413;-52
2021/05/04 09:10:21;;;;;;;3.67;1.13;;;11.20;99.90;;;;;;5087783;28;20477;-50
2021/05/04 09:19:03;;;;;;;1.57;1.33;;;11.30;99.90;;;;;;5083290;28;20423;-46
2021/05/04 09:21:46;;;;;;;1.90;1.70;;;11.40;99.90;;;;;;5086986;28;20483;-46
2021/05/04 09:24:42;;;;;;;1.90;1.80;;;11.40;99.90;;;;;;5088237;28;20949;-48
2021/05/04 09:27:17;;;;;;;2.00;1.50;;;11.40;99.90;;;;;;5087009;28;21071;-50
2021/05/04 09:29:53;;;;;;;1.63;1.30;;;11.30;99.90;;;;;;5078472;28;20426;-48
2021/05/04 09:32:27;;;;;;;2.40;1.90;;;11.20;99.90;;;;;;5086140;28;20801;-50
2021/05/04 09:34:58;;;;;;;2.77;2.00;;;11.10;99.90;;;;;;5079467;28;20557;-51
2021/05/04 09:37:25;;;;;;;3.63;2.27;;;11.00;99.90;;;;;;5085438;28;20441;-51
2021/05/04 09:39:52;;;;;;;4.20;2.17;;;10.80;99.90;;;;;;5087516;28;20506;-47
2021/05/04 09:42:17;;;;;;;3.00;2.30;;;10.70;99.90;;;;;;5086044;28;20422;-46
2021/05/04 09:44:50;;;;;;;3.10;2.10;;;10.60;99.90;;;;;;5088862;28;20421;-50
2021/05/04 09:47:23;;;;;;;3.20;3.00;;;10.60;99.90;;;;;;5105218;28;20179;-50
2021/05/04 09:49:50;;;;;;;2.43;2.23;;;10.60;99.90;;;;;;5071430;28;20438;-48
2021/05/04 09:55:05;;;;;;;2.30;2.10;;;10.50;99.90;;;;;;5102178;28;20459;-50
2021/05/04 09:57:32;;;;;;;2.30;2.10;;;10.70;99.90;;;;;;5103928;27;20489;-49
2021/05/04 09:59:57;;;;;;;2.60;2.40;;;10.50;99.90;;;;;;5089746;28;20415;-49
2021/05/04 10:02:23;;;;;;;2.43;2.30;;;10.50;99.90;;;;;;5107136;28;20470;-50
2021/05/04 10:04:53;;;;;;;5.30;2.70;;;10.60;99.90;;;;;;5074855;28;20596;-50
2021/05/04 10:07:23;;;;;;;3.23;2.23;;;10.80;99.90;;;;;;5087060;28;20801;-48
2021/05/04 10:09:50;;;;;;;6.20;2.50;;;10.90;99.90;;;;;;5084064;28;20472;-52
2021/05/04 10:12:20;;;;;;;5.03;3.63;;;11.10;99.90;;;;;;5087329;28;20717;-51
2021/05/04 10:14:47;;;;;;;2.60;2.40;;;11.30;99.90;;;;;;5087446;28;20488;-51
2021/05/04 10:17:16;;;;;;;3.67;2.40;;;11.40;99.90;;;;;;5087233;28;20410;-52
2021/05/04 10:19:42;;;;;;;2.87;1.90;;;11.40;99.90;;;;;;5077293;28;20944;-47
2021/05/04 10:22:09;;;;;;;2.33;2.10;;;11.60;99.90;;;;;;5087048;28;20483;-51
2021/05/04 10:24:35;;;;;;;5.93;2.20;;;11.70;99.90;;;;;;5106449;28;20671;-48
2021/05/04 10:27:06;;;;;;;2.70;2.10;;;11.80;99.90;;;;;;5100584;28;20458;-48
2021/05/04 10:29:32;;;;;;;4.73;2.40;;;11.80;99.90;;;;;;5091760;28;20972;-47
2021/05/04 10:31:58;;;;;;;2.80;2.13;;;11.80;99.90;;;;;;5098970;28;20422;-52
2021/05/04 10:34:29;;;;;;;4.17;2.50;;;11.90;99.90;;;;;;5087680;28;20521;-49
2021/05/04 10:36:57;;;;;;;4.73;2.30;;;12.00;99.90;;;;;;5085972;28;20499;-51
2021/05/04 10:39:46;;;;;;;3.30;2.73;;;12.20;99.90;;;;;;5084821;28;20430;-47
2021/05/04 10:42:35;;;;;;;4.90;2.07;;;12.40;99.90;;;;;;5079208;28;20753;-49
2021/05/04 10:45:01;;;;;;;3.57;2.07;;;12.40;99.90;;;;;;5088427;28;20429;-50
2021/05/04 10:47:46;;;;;;;4.80;2.00;;;12.40;99.90;;;;;;5086380;28;20434;-53
2021/05/04 10:50:23;;;;;;;3.77;2.37;;;12.60;99.90;;;;;;5077059;28;20202;-50
2021/05/04 10:52:49;;;;;;;2.97;1.87;;;12.80;99.90;;;;;;5078620;28;20426;-48
2021/05/04 10:55:16;;;;;;;7.77;2.30;;;12.90;99.90;;;;;;5086010;28;20474;-48
2021/05/04 10:58:00;;;;;;;2.37;2.13;;;12.90;99.90;;;;;;5086371;28;20422;-51
2021/05/04 11:00:52;;;;;;;4.43;1.97;;;12.90;99.90;;;;;;5084592;28;20437;-49
2021/05/04 11:03:33;;;;;;;7.20;2.90;;;12.60;99.90;;;;;;5085047;28;20498;-48
2021/05/04 11:06:07;;;;;;;4.80;2.37;;;12.50;99.90;;;;;;5078041;28;20433;-46
2021/05/04 11:08:47;;;;;;;5.07;2.50;;;12.20;99.90;;;;;;5084846;28;20725;-47
2021/05/04 11:11:41;;;;;;;6.13;2.23;;;11.90;99.90;;;;;;5087152;28;20804;-52
2021/05/04 11:14:16;;;;;;;8.73;2.60;;;11.90;99.90;;;;;;5085983;28;20458;-50
2021/05/04 11:16:46;;;;;;;4.20;2.37;;;11.90;99.90;;;;;;5086045;28;20796;-49
2021/05/04 11:19:17;;;;;;;5.00;2.97;;;11.90;99.90;;;;;;5081042;28;20878;-49
2021/05/04 11:21:50;;;;;;;8.13;3.23;;;12.00;99.90;;;;;;5087272;28;20419;-50
2021/05/04 11:24:20;;;;;;;5.77;3.33;;;12.00;99.90;;;;;;5089558;28;20514;-50
2021/05/04 11:26:53;;;;;;;4.80;2.97;;;12.10;99.90;;;;;;5106442;28;20433;-53
2021/05/04 11:29:31;;;;;;;7.13;3.13;;;12.10;99.90;;;;;;5088955;28;20421;-52
2021/05/04 11:32:37;;;;;;;5.43;2.90;;;12.20;99.90;;;;;;5104978;28;20514;-50
2021/05/04 11:35:07;;;;;;;6.50;2.40;;;12.40;99.90;;;;;;5078487;28;20479;-50
2021/05/04 11:37:39;;;;;;;7.30;2.70;;;12.50;99.90;;;;;;5083386;28;20543;-52
2021/05/04 11:40:25;;;;;;;5.43;2.27;;;12.40;99.90;;;;;;5085601;28;20434;-52
2021/05/04 11:42:56;;;;;;;6.27;2.40;;;12.50;99.90;;;;;;5084436;28;21064;-48
2021/05/04 11:45:34;;;;;;;4.87;2.00;;;12.70;99.90;;;;;;5086215;28;20422;-49
2021/05/04 11:48:07;;;;;;;8.40;2.73;;;12.90;99.90;;;;;;5085436;28;20434;-46
2021/05/04 11:50:33;;;;;;;7.03;2.43;;;13.10;99.90;;;;;;5077059;28;20446;-48
2021/05/04 11:53:03;;;;;;;6.77;2.43;;;13.20;99.90;;;;;;5090148;28;20426;-50
2021/05/04 11:55:40;;;;;;;6.37;1.90;;;13.30;99.90;;;;;;5085914;28;20431;-49
2021/05/04 11:58:07;;;;;;;4.77;2.70;;;13.40;99.90;;;;;;5085604;28;20422;-50
2021/05/04 12:00:35;;;;;;;4.10;2.30;;;13.40;99.90;;;;;;5082286;28;20465;-51
2021/05/04 12:03:11;;;;;;;6.23;2.20;;;13.30;99.90;;;;;;5086110;28;20673;-48
2021/05/04 12:05:38;;;;;;;4.50;2.30;;;13.10;99.90;;;;;;5080666;28;20438;-49
2021/05/04 12:08:05;;;;;;;7.37;2.03;;;13.00;99.90;;;;;;5087270;28;20438;-51
2021/05/04 12:10:39;;;;;;;6.70;2.60;;;13.00;99.90;;;;;;5089593;28;20425;-48
2021/05/04 12:13:06;;;;;;;5.10;2.40;;;12.90;99.90;;;;;;5090779;28;20430;-51
2021/05/04 12:15:47;;;;;;;4.03;2.20;;;12.90;99.90;;;;;;5092530;28;20745;-49
2021/05/04 12:18:23;;;;;;;3.70;2.10;;;12.80;99.90;;;;;;5093130;28;20457;-51
2021/05/04 12:20:54;;;;;;;8.07;3.00;;;12.70;99.90;;;;;;5082009;28;20465;-49
2021/05/04 12:23:31;;;;;;;10.47;3.07;;;12.60;99.90;;;;;;5092327;28;20795;-49
2021/05/04 12:26:07;;;;;;;6.13;2.20;;;12.60;99.90;;;;;;5090990;28;20525;-51
2021/05/04 12:28:57;;;;;;;3.43;1.90;;;12.60;99.90;;;;;;5091715;28;20520;-51
2021/05/04 12:31:28;;;;;;;5.70;2.33;;;12.60;99.90;;;;;;5080116;28;20432;-50
2021/05/04 12:33:55;;;;;;;4.00;1.90;;;12.50;99.90;;;;;;5092930;28;20462;-47
2021/05/04 12:36:47;;;;;;;7.67;2.63;;;12.40;99.90;;;;;;5080247;28;20438;-51
2021/05/04 12:39:24;;;;;;;6.77;2.63;;;12.30;99.90;;;;;;5096842;28;20485;-52
2021/05/04 12:41:52;;;;;;;12.30;2.63;;;12.30;99.90;;;;;;5106842;28;20455;-51
2021/05/04 12:44:25;;;;;;;7.47;2.87;;;12.40;99.90;;;;;;5105412;28;20457;-49
2021/05/04 12:46:53;;;;;;;7.30;2.40;;;12.50;99.90;;;;;;5107945;28;20934;-51
2021/05/04 12:49:19;;;;;;;3.73;1.77;;;12.60;99.90;;;;;;5112888;28;20808;-48
2021/05/04 12:51:54;;;;;;;3.73;1.97;;;12.60;99.90;;;;;;5087948;27;20638;-49
2021/05/04 12:54:22;;;;;;;3.83;2.13;;;12.60;99.90;;;;;;5092743;28;20546;-51
2021/05/04 12:56:50;;;;;;;6.43;1.83;;;12.50;99.30;;;;;;5089197;28;20426;-48
2021/05/04 12:59:26;;;;;;;8.27;2.13;;;12.50;99.40;;;;;;5092097;28;20878;-47
2021/05/04 13:01:58;;;;;;;3.73;1.60;;;12.60;99.40;;;;;;5091979;28;20432;-51
2021/05/04 13:07:07;;;;;;;5.37;2.10;;;12.50;98.80;;;;;;5082113;28;20438;-52